Newark Liberty International Airport Newark US
ICAO: KEWR
IATA: EWR
Category: Large
Scheduled Services: Yes

Elevation: 18 ft
TransAlt. 18000 ft.

Airport Communications:
NEW YORK APP:127.6
ATIS:115.7
CLNC DEL:118.85
NEW YORK DEP:119.2
GND:121.8
TWR:118.3
UNICOM:122.95

KEWR Zoom In..

Runways:

(A) RW 04L length 11000 ft width 150 ft
ILS 110.75 / hdg 39

(B) RW 04R length 10000 ft width 150 ft
ILS 108.70 / hdg 39

(C) RW 11 length 6800 ft width 150 ft
ILS 109.15 / hdg 108

(D) RW 22L length 10000 ft width 150 ft
ILS 108.70 / hdg 219

(E) RW 22R length 11000 ft width 150 ft
ILS 110.75 / hdg 219

(F) RW 29 length 6800 ft width 150 ft
---- / hdg 288

Location; KEWR
Day. 08 / Time. 04.51 Zulu
* Altimeter: 29.62
* Temperature: 13° c. 55.4°f.
* Wind from: 210° Speed 07 kn.
Dewpoint: 08° c.
Visibility: 10 Statute Miles.
Clouds: Broken 7000 ft.
Clouds: Broken 11000 ft.

KEWR 080451Z 21007KT 10SM BKN070 BKN110 13/08 A2962 RMK AO2 SLP031 T01330078 402000111


Wind From 210°
Speed 07 kn.

 
 
jpsmedia worldairports.se 2020   terms of use